createdAt,value
2018-09-27T00:00:59.131Z,15.42
2018-09-27T00:03:27.387Z,15.41
2018-09-27T00:05:55.655Z,15.31
2018-09-27T00:08:23.963Z,15.41
2018-09-27T00:10:52.207Z,15.41
2018-09-27T00:13:20.409Z,15.45
2018-09-27T00:15:48.690Z,15.35
2018-09-27T00:18:16.914Z,15.43
2018-09-27T00:20:45.241Z,15.47
2018-09-27T00:23:13.464Z,15.52
2018-09-27T00:25:41.580Z,15.43
2018-09-27T00:28:10.523Z,15.44
2018-09-27T00:30:38.691Z,15.45
2018-09-27T00:33:06.872Z,15.51
2018-09-27T00:35:35.040Z,15.56
2018-09-27T00:38:03.327Z,15.63
2018-09-27T00:40:31.520Z,15.56
2018-09-27T00:42:59.671Z,15.59
2018-09-27T00:45:27.852Z,15.54
2018-09-27T00:47:56.117Z,15.58
2018-09-27T00:50:24.390Z,15.61
2018-09-27T00:52:52.698Z,15.58
2018-09-27T00:55:20.897Z,15.60
2018-09-27T00:57:49.083Z,15.60
2018-09-27T01:02:52.283Z,15.68
2018-09-27T01:05:20.447Z,15.70
2018-09-27T01:07:48.625Z,15.66
2018-09-27T01:10:16.814Z,15.66
2018-09-27T01:12:44.985Z,15.60
2018-09-27T01:15:13.304Z,15.67
2018-09-27T01:17:41.559Z,15.73
2018-09-27T01:20:09.932Z,15.73
2018-09-27T01:22:38.181Z,15.69
2018-09-27T01:25:06.381Z,15.70
2018-09-27T01:27:34.537Z,15.63
2018-09-27T01:30:02.853Z,15.60
2018-09-27T01:32:31.044Z,15.65
2018-09-27T01:34:59.664Z,15.59
2018-09-27T01:37:27.823Z,15.67
2018-09-27T01:39:56.102Z,15.66
2018-09-27T01:42:24.385Z,15.65
2018-09-27T01:44:52.569Z,15.63
2018-09-27T01:47:20.833Z,15.65
2018-09-27T01:49:49.021Z,15.67
2018-09-27T01:52:17.159Z,15.69
2018-09-27T01:54:45.315Z,15.58
2018-09-27T01:57:13.474Z,15.62
2018-09-27T01:59:41.717Z,15.57
2018-09-27T02:02:09.871Z,15.69
2018-09-27T02:04:38.198Z,15.65
2018-09-27T02:07:06.539Z,15.68
2018-09-27T02:09:34.847Z,15.61
2018-09-27T02:12:02.987Z,15.51
2018-09-27T02:14:31.191Z,15.57
2018-09-27T02:16:59.459Z,15.71
2018-09-27T02:19:27.643Z,15.55
2018-09-27T02:21:55.941Z,15.58
2018-09-27T02:24:24.197Z,15.64
2018-09-27T02:26:52.429Z,15.58
2018-09-27T02:29:21.221Z,15.62
2018-09-27T02:31:49.563Z,15.53
2018-09-27T02:34:17.769Z,15.56
2018-09-27T02:36:45.943Z,15.58
2018-09-27T02:39:14.125Z,15.56
2018-09-27T02:41:42.428Z,15.52
2018-09-27T02:44:10.659Z,15.48
2018-09-27T02:46:38.895Z,15.48
2018-09-27T02:49:07.161Z,15.50
2018-09-27T02:51:35.503Z,15.43
2018-09-27T02:54:03.672Z,15.51
2018-09-27T02:56:31.978Z,15.50
2018-09-27T02:59:00.225Z,15.49
2018-09-27T03:01:29.298Z,15.51
2018-09-27T03:03:57.511Z,15.48
2018-09-27T03:06:25.812Z,15.49
2018-09-27T03:08:54.054Z,15.45
2018-09-27T03:11:22.360Z,15.49
2018-09-27T03:13:51.839Z,15.51
2018-09-27T03:16:20.059Z,15.48
2018-09-27T03:18:48.227Z,15.45
2018-09-27T03:21:17.197Z,15.47
2018-09-27T03:23:45.381Z,15.40
2018-09-27T03:26:20.283Z,15.35
2018-09-27T03:28:48.410Z,15.38
2018-09-27T03:31:17.269Z,15.40
2018-09-27T03:33:45.437Z,15.53
2018-09-27T03:36:13.575Z,15.55
2018-09-27T03:38:41.806Z,15.50
2018-09-27T03:41:10.024Z,15.52
2018-09-27T03:43:38.275Z,15.55
2018-09-27T03:46:06.517Z,15.46
2018-09-27T03:48:34.731Z,15.43
2018-09-27T03:51:02.971Z,15.45
2018-09-27T03:53:31.152Z,15.53
2018-09-27T03:55:59.323Z,15.50
2018-09-27T03:58:27.437Z,15.58
2018-09-27T04:00:55.687Z,15.56
2018-09-27T04:03:23.904Z,15.58
2018-09-27T04:05:52.034Z,15.56
2018-09-27T04:08:20.277Z,15.53
2018-09-27T04:10:48.492Z,15.58
2018-09-27T04:13:16.755Z,15.59
2018-09-27T04:15:45.145Z,15.56
2018-09-27T04:18:13.809Z,15.64
2018-09-27T04:20:56.953Z,15.61
2018-09-27T04:23:25.139Z,15.55
2018-09-27T04:25:53.283Z,15.47
2018-09-27T04:28:22.312Z,15.50
2018-09-27T04:30:50.498Z,15.47
2018-09-27T04:33:18.698Z,15.50
2018-09-27T04:35:46.909Z,15.56
2018-09-27T04:38:15.280Z,15.61
2018-09-27T04:40:43.461Z,15.67
2018-09-27T04:43:11.642Z,15.58
2018-09-27T04:45:39.942Z,15.50
2018-09-27T04:48:08.078Z,15.48
2018-09-27T04:50:36.251Z,15.48
2018-09-27T04:53:04.399Z,15.60
2018-09-27T04:55:32.762Z,15.62
2018-09-27T04:58:01.015Z,15.63
2018-09-27T05:00:29.493Z,15.62
2018-09-27T05:02:58.067Z,15.67
2018-09-27T05:05:26.860Z,15.68
2018-09-27T05:07:55.143Z,15.59
2018-09-27T05:10:23.600Z,15.50
2018-09-27T05:12:51.753Z,15.66
2018-09-27T05:15:19.974Z,15.64
2018-09-27T05:17:48.163Z,15.72
2018-09-27T05:20:16.347Z,15.68
2018-09-27T05:22:44.565Z,15.71
2018-09-27T05:25:12.763Z,15.67
2018-09-27T05:27:50.232Z,15.70
2018-09-27T05:30:18.932Z,15.69
2018-09-27T05:32:47.253Z,15.67
2018-09-27T05:35:15.670Z,15.80
2018-09-27T05:37:46.220Z,15.85
2018-09-27T05:40:15.547Z,15.72
2018-09-27T05:42:43.779Z,15.80
2018-09-27T05:45:12.057Z,15.76
2018-09-27T05:47:40.362Z,15.84
2018-09-27T05:50:09.025Z,15.93
2018-09-27T05:52:37.539Z,15.97
2018-09-27T05:57:43.841Z,15.86
2018-09-27T06:00:12.049Z,15.80
2018-09-27T06:02:45.446Z,15.83
2018-09-27T06:05:13.649Z,15.97
2018-09-27T06:07:41.815Z,16.09
2018-09-27T06:10:10.017Z,16.07
2018-09-27T06:12:38.243Z,16.22
2018-09-27T06:15:06.509Z,16.23
2018-09-27T06:17:34.899Z,16.24
2018-09-27T06:20:03.861Z,16.25
2018-09-27T06:22:32.064Z,16.32
2018-09-27T06:25:00.841Z,16.32
2018-09-27T06:27:29.558Z,16.33
2018-09-27T06:29:57.812Z,16.41
2018-09-27T06:32:25.953Z,16.44
2018-09-27T06:34:54.269Z,16.41
2018-09-27T06:37:22.445Z,16.52
2018-09-27T06:39:57.741Z,16.59
2018-09-27T06:42:27.631Z,16.45
2018-09-27T06:44:55.827Z,16.63
2018-09-27T06:47:24.036Z,16.69
2018-09-27T06:49:52.248Z,16.68
2018-09-27T06:52:20.593Z,16.79
2018-09-27T06:54:49.309Z,16.70
2018-09-27T06:57:17.524Z,16.75
2018-09-27T06:59:45.728Z,16.70
2018-09-27T07:02:13.860Z,16.83
2018-09-27T07:04:42.308Z,16.84
2018-09-27T07:07:10.450Z,16.82
2018-09-27T07:09:38.692Z,16.85
2018-09-27T07:12:07.105Z,16.83
2018-09-27T07:14:35.998Z,16.95
2018-09-27T07:17:04.155Z,16.91
2018-09-27T07:19:32.346Z,16.96
2018-09-27T07:22:00.479Z,17.06
2018-09-27T07:24:28.832Z,17.04
2018-09-27T07:26:57.168Z,17.19
2018-09-27T07:29:25.413Z,17.15
2018-09-27T07:31:53.829Z,17.13
2018-09-27T07:34:21.988Z,17.20
2018-09-27T07:36:50.182Z,17.19
2018-09-27T07:39:18.493Z,17.21
2018-09-27T07:41:46.653Z,17.22
2018-09-27T07:44:14.807Z,17.46
2018-09-27T07:46:43.062Z,17.52
2018-09-27T07:49:11.273Z,17.50
2018-09-27T07:51:39.791Z,17.55
2018-09-27T07:54:08.581Z,17.76
2018-09-27T07:56:36.859Z,17.80
2018-09-27T07:59:05.337Z,17.82
2018-09-27T08:01:33.878Z,17.76
2018-09-27T08:04:02.669Z,17.93
2018-09-27T08:06:31.013Z,18.15
2018-09-27T08:09:01.318Z,18.19
2018-09-27T08:11:30.473Z,18.28
2018-09-27T08:13:59.259Z,18.31
2018-09-27T08:16:27.461Z,18.14
2018-09-27T08:18:55.663Z,17.73
2018-09-27T08:21:29.314Z,17.74
2018-09-27T08:23:59.776Z,17.73
2018-09-27T08:26:27.937Z,17.66
2018-09-27T08:28:56.688Z,17.71
2018-09-27T08:31:25.605Z,17.79
2018-09-27T08:34:03.547Z,17.82
2018-09-27T08:36:33.705Z,17.86
2018-09-27T08:39:01.991Z,17.91
2018-09-27T08:41:30.283Z,17.90
2018-09-27T08:43:58.498Z,17.90
2018-09-27T08:46:27.573Z,17.95
2018-09-27T08:48:57.365Z,17.90
2018-09-27T08:51:26.358Z,17.92
2018-09-27T08:53:54.499Z,17.97
2018-09-27T08:56:22.751Z,17.94
2018-09-27T08:58:50.919Z,18.01
2018-09-27T09:01:19.167Z,18.12
2018-09-27T09:03:47.402Z,18.12
2018-09-27T09:06:16.466Z,18.22
2018-09-27T09:08:45.339Z,18.33
2018-09-27T09:11:13.515Z,18.34
2018-09-27T09:13:41.732Z,18.46
2018-09-27T09:16:10.022Z,18.55
2018-09-27T09:18:43.490Z,18.62
2018-09-27T09:21:11.752Z,18.62
2018-09-27T09:23:39.939Z,18.56
2018-09-27T09:26:08.196Z,18.61
2018-09-27T09:28:36.600Z,18.80
2018-09-27T09:31:05.025Z,18.91
2018-09-27T09:33:33.193Z,19.06
2018-09-27T09:36:01.834Z,19.14
2018-09-27T09:38:30.096Z,19.14
2018-09-27T09:40:58.415Z,19.14
2018-09-27T09:43:27.314Z,19.11
2018-09-27T09:45:55.459Z,19.16
2018-09-27T09:48:23.602Z,19.27
2018-09-27T09:50:51.894Z,19.19
2018-09-27T09:53:20.596Z,19.25
2018-09-27T09:55:48.790Z,19.33
2018-09-27T09:58:17.147Z,19.39
2018-09-27T10:00:45.354Z,19.60
2018-09-27T10:03:13.684Z,19.60
2018-09-27T10:05:41.836Z,19.58
2018-09-27T10:08:10.284Z,19.57
2018-09-27T10:10:39.232Z,19.62
2018-09-27T10:13:07.417Z,19.60
2018-09-27T10:15:36.048Z,19.54
2018-09-27T10:18:05.081Z,19.59
2018-09-27T10:20:33.443Z,19.76
2018-09-27T10:23:01.608Z,19.84
2018-09-27T10:25:29.834Z,20.05
2018-09-27T10:27:58.179Z,19.85
2018-09-27T10:30:26.407Z,19.76
2018-09-27T10:32:54.701Z,19.75
2018-09-27T10:35:24.058Z,19.66
2018-09-27T10:37:52.487Z,19.52
2018-09-27T10:40:21.304Z,19.52
2018-09-27T10:42:49.570Z,19.48
2018-09-27T10:45:17.780Z,19.53
2018-09-27T10:47:46.067Z,19.66
2018-09-27T10:50:14.212Z,19.87
2018-09-27T10:52:43.756Z,20.05
2018-09-27T10:55:11.991Z,20.06
2018-09-27T10:57:40.932Z,20.22
2018-09-27T11:00:10.978Z,20.49
2018-09-27T11:02:39.603Z,20.63
2018-09-27T11:05:07.823Z,20.60
2018-09-27T11:07:36.282Z,20.70
2018-09-27T11:10:05.022Z,20.69
2018-09-27T11:12:33.454Z,20.75
2018-09-27T11:15:01.974Z,20.80
2018-09-27T11:17:30.933Z,20.76
2018-09-27T11:19:59.218Z,20.84
2018-09-27T11:22:27.459Z,20.87
2018-09-27T11:24:57.172Z,20.68
2018-09-27T11:27:25.588Z,20.67
2018-09-27T11:29:59.925Z,20.63
2018-09-27T11:32:30.156Z,20.84
2018-09-27T11:34:58.725Z,20.87
2018-09-27T11:37:27.245Z,20.93
2018-09-27T11:39:55.771Z,21.08
2018-09-27T11:42:24.056Z,21.10
2018-09-27T11:44:52.307Z,21.08
2018-09-27T11:47:20.628Z,21.01
2018-09-27T11:49:48.916Z,21.11
2018-09-27T11:52:17.211Z,21.13
2018-09-27T11:54:45.477Z,21.14
2018-09-27T11:57:13.674Z,21.16
2018-09-27T11:59:41.977Z,21.16
2018-09-27T12:02:10.189Z,21.21
2018-09-27T12:04:38.511Z,21.26
2018-09-27T12:07:06.830Z,21.23
2018-09-27T12:09:35.065Z,21.27
2018-09-27T12:12:03.945Z,21.33
2018-09-27T12:14:32.824Z,21.30
2018-09-27T12:17:00.980Z,21.23
2018-09-27T12:19:29.519Z,21.21
2018-09-27T12:21:58.097Z,21.35
2018-09-27T12:24:26.306Z,21.31
2018-09-27T12:26:54.648Z,21.37
2018-09-27T12:29:22.875Z,21.45
2018-09-27T12:31:51.044Z,21.47
2018-09-27T12:34:19.304Z,21.51
2018-09-27T12:36:47.477Z,21.62
2018-09-27T12:39:15.671Z,21.58
2018-09-27T12:41:43.880Z,21.44
2018-09-27T12:44:12.238Z,21.46
2018-09-27T12:46:40.727Z,21.42
2018-09-27T12:49:09.808Z,21.43
2018-09-27T12:51:38.103Z,21.55
2018-09-27T12:54:07.474Z,21.60
2018-09-27T12:56:35.772Z,21.53
2018-09-27T12:59:05.246Z,21.64
2018-09-27T13:01:34.511Z,21.60
2018-09-27T13:04:03.089Z,21.56
2018-09-27T13:06:31.277Z,21.54
2018-09-27T13:08:59.528Z,21.63
2018-09-27T13:11:27.766Z,21.59
2018-09-27T13:13:57.726Z,21.50
2018-09-27T13:16:27.054Z,21.48
2018-09-27T13:18:57.940Z,21.58
2018-09-27T13:21:25.093Z,21.60
2018-09-27T13:23:53.857Z,21.56
2018-09-27T13:26:22.213Z,21.60
2018-09-27T13:28:50.489Z,21.58
2018-09-27T13:31:19.627Z,21.70
2018-09-27T13:33:47.771Z,21.79
2018-09-27T13:36:16.680Z,21.78
2018-09-27T13:38:45.185Z,21.70
2018-09-27T13:41:13.644Z,21.64
2018-09-27T13:43:42.091Z,21.73
2018-09-27T13:46:10.445Z,21.74
2018-09-27T13:48:38.643Z,21.73
2018-09-27T13:51:07.047Z,21.68
2018-09-27T13:53:35.843Z,21.69
2018-09-27T13:56:04.342Z,21.71
2018-09-27T13:58:32.633Z,21.79
2018-09-27T14:01:01.035Z,21.75
2018-09-27T14:03:29.224Z,21.69
2018-09-27T14:05:57.394Z,21.79
2018-09-27T14:08:26.158Z,21.71
2018-09-27T14:10:54.477Z,21.78
2018-09-27T14:13:23.363Z,21.86
2018-09-27T14:15:52.672Z,21.83
2018-09-27T14:18:21.061Z,21.84
2018-09-27T14:20:49.204Z,21.81
2018-09-27T14:23:21.453Z,21.84
2018-09-27T14:25:49.906Z,21.84
2018-09-27T14:28:18.215Z,21.81
2018-09-27T14:30:46.614Z,21.87
2018-09-27T14:33:15.538Z,21.80
2018-09-27T14:35:44.546Z,21.75
2018-09-27T14:38:12.764Z,21.70
2018-09-27T14:40:41.062Z,21.73
2018-09-27T14:43:09.402Z,21.72
2018-09-27T14:45:37.706Z,21.77
2018-09-27T14:48:05.988Z,21.72
2018-09-27T14:50:34.222Z,21.81
2018-09-27T14:53:02.509Z,21.78
2018-09-27T14:55:30.693Z,21.73
2018-09-27T14:57:58.896Z,21.60
2018-09-27T15:00:27.119Z,21.58
2018-09-27T15:02:55.356Z,21.60
2018-09-27T15:05:23.668Z,21.55
2018-09-27T15:07:52.011Z,21.67
2018-09-27T15:10:20.299Z,21.63
2018-09-27T15:12:48.604Z,21.54
2018-09-27T15:15:16.896Z,21.61
2018-09-27T15:17:45.232Z,21.60
2018-09-27T15:20:14.046Z,21.58
2018-09-27T15:22:42.342Z,21.55
2018-09-27T15:25:11.638Z,21.48
2018-09-27T15:27:39.835Z,21.40
2018-09-27T15:30:08.214Z,21.32
2018-09-27T15:32:37.787Z,21.32
2018-09-27T15:35:06.060Z,21.42
2018-09-27T15:37:34.539Z,21.37
2018-09-27T15:40:03.937Z,21.34
2018-09-27T15:42:32.137Z,21.34
2018-09-27T15:45:00.449Z,21.29
2018-09-27T15:47:28.838Z,21.30
2018-09-27T15:49:57.018Z,21.28
2018-09-27T15:52:25.203Z,21.30
2018-09-27T15:54:54.589Z,21.26
2018-09-27T15:57:22.753Z,21.13
2018-09-27T15:59:50.915Z,21.09
2018-09-27T16:02:19.241Z,21.05
2018-09-27T16:04:47.442Z,21.00
2018-09-27T16:07:16.179Z,21.01
2018-09-27T16:09:44.608Z,20.87
2018-09-27T16:12:12.904Z,20.97
2018-09-27T16:14:43.440Z,20.78
2018-09-27T16:17:12.608Z,20.74
2018-09-27T16:19:41.126Z,20.70
2018-09-27T16:22:09.602Z,20.79
2018-09-27T16:24:37.725Z,20.64
2018-09-27T16:27:06.091Z,20.53
2018-09-27T16:29:34.593Z,20.46
2018-09-27T16:32:02.779Z,20.36
2018-09-27T16:34:30.915Z,20.23
2018-09-27T16:36:59.088Z,20.33
2018-09-27T16:39:27.285Z,20.32
2018-09-27T16:41:55.519Z,20.20
2018-09-27T16:44:23.683Z,20.05
2018-09-27T16:46:52.244Z,19.92
2018-09-27T16:49:20.459Z,19.93
2018-09-27T16:51:48.897Z,19.93
2018-09-27T16:54:17.366Z,19.83
2018-09-27T16:56:45.612Z,19.90
2018-09-27T16:59:13.829Z,19.79
2018-09-27T17:01:42.117Z,19.74
2018-09-27T17:04:10.307Z,19.93
2018-09-27T17:06:38.661Z,19.82
2018-09-27T17:09:08.131Z,19.79
2018-09-27T17:11:36.397Z,19.87
2018-09-27T17:16:42.963Z,19.60
2018-09-27T17:19:16.483Z,19.50
2018-09-27T17:21:51.860Z,19.51
2018-09-27T17:24:20.077Z,19.43
2018-09-27T17:26:48.286Z,19.40
2018-09-27T17:29:16.534Z,19.32
2018-09-27T17:31:44.918Z,19.22
2018-09-27T17:34:13.146Z,19.38
2018-09-27T17:36:41.474Z,19.34
2018-09-27T17:39:10.426Z,19.48
2018-09-27T17:41:38.676Z,19.36
2018-09-27T17:44:07.260Z,19.27
2018-09-27T17:46:35.516Z,19.24
2018-09-27T17:49:03.695Z,19.13
2018-09-27T17:51:31.895Z,19.08
2018-09-27T17:54:00.883Z,19.05
2018-09-27T17:56:29.171Z,19.00
2018-09-27T17:58:57.416Z,19.23
2018-09-27T18:01:25.640Z,19.23
2018-09-27T18:03:54.290Z,19.10
2018-09-27T18:06:22.618Z,19.18
2018-09-27T18:08:51.051Z,19.20
2018-09-27T18:11:19.476Z,19.12
2018-09-27T18:13:47.708Z,19.07
2018-09-27T18:16:16.006Z,18.96
2018-09-27T18:18:46.077Z,19.21
2018-09-27T18:21:14.582Z,18.97
2018-09-27T18:23:42.757Z,19.02
2018-09-27T18:26:11.149Z,18.97
2018-09-27T18:28:39.694Z,18.81
2018-09-27T18:31:08.033Z,18.74
2018-09-27T18:33:36.328Z,18.64
2018-09-27T18:36:04.506Z,18.86
2018-09-27T18:38:33.301Z,18.80
2018-09-27T18:41:01.567Z,18.82
2018-09-27T18:43:29.905Z,18.84
2018-09-27T18:45:58.274Z,18.74
2018-09-27T18:48:26.540Z,18.81
2018-09-27T18:50:54.841Z,18.72
2018-09-27T18:53:23.584Z,18.65
2018-09-27T18:55:52.001Z,18.64
2018-09-27T18:58:20.270Z,18.68
2018-09-27T19:00:48.528Z,18.85
2018-09-27T19:03:16.821Z,18.71
2018-09-27T19:05:45.310Z,18.80
2018-09-27T19:08:13.498Z,18.51
2018-09-27T19:10:41.804Z,18.60
2018-09-27T19:13:10.083Z,18.42
2018-09-27T19:15:38.329Z,18.22
2018-09-27T19:18:06.585Z,18.26
2018-09-27T19:20:34.900Z,18.15
2018-09-27T19:23:03.176Z,18.28
2018-09-27T19:25:31.400Z,18.08
2018-09-27T19:27:59.958Z,18.20
2018-09-27T19:30:28.323Z,18.29
2018-09-27T19:32:56.604Z,18.05
2018-09-27T19:35:24.858Z,18.03
2018-09-27T19:37:53.145Z,18.08
2018-09-27T19:40:21.386Z,18.03
2018-09-27T19:42:50.327Z,18.15
2018-09-27T19:45:18.546Z,17.93
2018-09-27T19:47:47.748Z,17.86
2018-09-27T19:50:16.042Z,17.84
2018-09-27T19:52:44.242Z,17.67
2018-09-27T19:55:12.518Z,17.60
2018-09-27T19:57:40.747Z,17.75
2018-09-27T20:00:09.089Z,17.64
2018-09-27T20:02:38.654Z,17.66
2018-09-27T20:05:06.946Z,17.55
2018-09-27T20:07:35.396Z,17.44
2018-09-27T20:10:03.818Z,17.65
2018-09-27T20:12:32.209Z,17.79
2018-09-27T20:15:00.451Z,17.56
2018-09-27T20:17:28.733Z,17.64
2018-09-27T20:19:57.822Z,17.60
2018-09-27T20:22:26.560Z,17.39
2018-09-27T20:24:54.771Z,17.29
2018-09-27T20:27:23.233Z,17.33
2018-09-27T20:29:52.036Z,17.60
2018-09-27T20:32:20.378Z,17.61
2018-09-27T20:34:50.107Z,17.57
2018-09-27T20:37:21.613Z,17.46
2018-09-27T20:39:49.831Z,17.25
2018-09-27T20:42:18.105Z,17.34
2018-09-27T20:44:46.399Z,17.06
2018-09-27T20:47:14.623Z,17.11
2018-09-27T20:49:42.815Z,16.92
2018-09-27T20:52:11.038Z,16.85
2018-09-27T20:54:39.272Z,16.83
2018-09-27T20:57:07.726Z,16.83
2018-09-27T20:59:35.887Z,16.79
2018-09-27T21:02:04.199Z,16.86
2018-09-27T21:04:32.349Z,17.08
2018-09-27T21:07:00.518Z,17.13
2018-09-27T21:09:28.737Z,17.09
2018-09-27T21:11:56.970Z,17.12
2018-09-27T21:14:25.191Z,17.16
2018-09-27T21:16:53.419Z,16.88
2018-09-27T21:19:21.601Z,16.83
2018-09-27T21:21:49.907Z,17.02
2018-09-27T21:24:18.249Z,17.12
2018-09-27T21:26:46.575Z,17.03
2018-09-27T21:29:14.834Z,16.79
2018-09-27T21:31:43.128Z,16.73
2018-09-27T21:34:11.380Z,16.60
2018-09-27T21:36:39.579Z,16.75
2018-09-27T21:39:08.350Z,16.47
2018-09-27T21:41:36.756Z,16.33
2018-09-27T21:44:04.903Z,16.32
2018-09-27T21:46:33.326Z,16.23
2018-09-27T21:49:01.469Z,16.27
2018-09-27T21:51:29.631Z,16.22
2018-09-27T21:53:57.797Z,16.10
2018-09-27T21:56:26.126Z,16.01
2018-09-27T21:58:54.300Z,16.25
2018-09-27T22:01:22.596Z,16.15
2018-09-27T22:03:50.937Z,16.14
2018-09-27T22:06:19.122Z,15.98
2018-09-27T22:08:47.328Z,15.89
2018-09-27T22:11:16.047Z,15.90
2018-09-27T22:13:44.293Z,15.88
2018-09-27T22:16:12.447Z,15.84
2018-09-27T22:18:40.721Z,15.92
2018-09-27T22:21:08.940Z,15.88
2018-09-27T22:23:37.427Z,15.82
2018-09-27T22:26:05.603Z,15.86
2018-09-27T22:28:33.819Z,15.84
2018-09-27T22:31:01.952Z,15.98
2018-09-27T22:33:30.154Z,15.91
2018-09-27T22:35:58.402Z,15.97
2018-09-27T22:38:26.631Z,15.96
2018-09-27T22:40:54.941Z,16.06
2018-09-27T22:43:23.234Z,15.91
2018-09-27T22:45:51.488Z,15.76
2018-09-27T22:48:20.165Z,15.72
2018-09-27T22:50:48.411Z,15.67
2018-09-27T22:53:16.638Z,15.68
2018-09-27T22:55:44.895Z,15.59
2018-09-27T22:58:13.227Z,15.71
2018-09-27T23:00:41.612Z,15.75
2018-09-27T23:03:10.335Z,15.70
2018-09-27T23:05:39.158Z,15.72
2018-09-27T23:08:07.273Z,15.74
2018-09-27T23:10:35.495Z,15.70
2018-09-27T23:13:03.640Z,15.76
2018-09-27T23:15:31.856Z,15.66
2018-09-27T23:18:00.126Z,15.71
2018-09-27T23:20:28.483Z,15.73
2018-09-27T23:22:56.584Z,15.69
2018-09-27T23:25:24.862Z,15.78
2018-09-27T23:27:53.103Z,15.64
2018-09-27T23:30:21.339Z,15.72
2018-09-27T23:32:49.557Z,15.47
2018-09-27T23:35:17.705Z,15.33
2018-09-27T23:37:45.979Z,15.20
2018-09-27T23:40:14.199Z,15.19
2018-09-27T23:42:42.424Z,15.06
2018-09-27T23:45:10.647Z,15.02
2018-09-27T23:47:38.911Z,15.20
2018-09-27T23:50:07.172Z,15.20
2018-09-27T23:52:35.409Z,15.12
2018-09-27T23:55:03.628Z,14.88
2018-09-27T23:57:31.854Z,14.94
